Ulmer, SC (29849)

7:16 PM EST on February 21, 2017 (GMT -0500)
JCO Farms | | Change Station

Elev 167 ft 32.99 °N, 81.29 °W | Updated 15 seconds ago

Rain
Rain
65.3 °F
Feels Like 65.3 °F
N
4.0
Wind Variable Wind from ESE
Gusts 4.9 mph

Today
High -- | Low -- °F
--% Chance of Precip.
Yesterday
High -- | Low -- °F
Precip. -- in
Pressure 30.07 in
Visibility 10.0 miles
Clouds Scattered Clouds 2900 ft
Mostly Cloudy 4000 ft
Overcast 7500 ft
Dew Point 42 °F
Humidity 43%
Rainfall 0.00 in
Snow Depth Not available.
7:01 AM 6:15 PM
Waning Crescent, 21% visible
METAR KOGB 212353Z AUTO 10004KT 10SM SCT029 BKN040 OVC075 18/13 A3007 RMK AO2 SLP181 T01830128 10206 20183 56003
Pressure 30.07 in
Visibility 10.0 miles
Clouds Scattered Clouds 2900 ft
Mostly Cloudy 4000 ft
Overcast 7500 ft
Dew Point 42 °F
Humidity 43%
Rainfall 0.00 in
Snow Depth Not available.
7:01 AM 6:15 PM
Waning Crescent, 21% visible
METAR KOGB 212353Z AUTO 10004KT 10SM SCT029 BKN040 OVC075 18/13 A3007 RMK AO2 SLP181 T01830128 10206 20183 56003

Get Your Daily Forecast Email!

Thanks for signing up!

Be on the lookout for a verification email in your inbox.

You'll start receiving the daily forecast at 8 AM.

×

10-Day Weather Forecast

Almanac

Astronomy

Feb. 21, 2017 Rise Set
Actual Time
Civil Twilight
Nautical Twilight
Astronomical Twilight
Moon
Length of Visible Light
Length of Day
Tomorrow will be .
, % of the Moon is Illuminated

Today's Extremes

State Highs State Lows

Community

WunderPhotos

Upload Photos

1,962,540 photos uploaded!

WunderBlog® & News

Nearby

Air Quality

  Air Quality AQ Index Pollutant
Not available.

Snow Depth

Station Depth Elevation

Earthquake Activity

City Distance Mag. Time & Date
Minimum magnitude displayed is 2.5.

Coastal Water Temperatures

Place Temperature

Stations

Nearby Weather Stations

Station Location Temp. Windchill Dew Point Humidity Wind Precip. Elev Updated Type
                   

Watches & Warnings

There are currently no watches in effect.